Time;durP1;ratioP1;P1;durP2;ratioP2;P2;SDS_P1;SDS_P2;PMS_P1;PMS_P2;Temp;Humidity;BMP_temperature;BMP_pressure;BME280_temperature;BME280_humidity;BME280_pressure;Samples;Min_cycle;Max_cycle;Signal;HPM_P1;HPM_P2
2023/07/31 00:00:11;;;;;;;5.28;2.10;;;18.40;99.90;;;;;;5092779;28;20047;-69
2023/07/31 00:02:36;;;;;;;5.03;1.80;;;18.40;99.90;;;;;;5092115;28;20159;-69
2023/07/31 00:05:02;;;;;;;3.35;1.58;;;18.40;99.90;;;;;;5093043;28;20147;-69
2023/07/31 00:07:28;;;;;;;5.03;1.83;;;18.30;99.90;;;;;;5092982;28;20034;-69
2023/07/31 00:09:54;;;;;;;5.55;1.60;;;18.40;99.90;;;;;;5092966;28;20042;-69
2023/07/31 00:12:20;;;;;;;3.40;1.80;;;18.30;99.90;;;;;;5092499;28;20473;-69
2023/07/31 00:14:46;;;;;;;5.80;1.98;;;18.30;99.90;;;;;;5093413;28;20021;-70
2023/07/31 00:17:11;;;;;;;3.47;1.70;;;18.30;99.90;;;;;;5092515;28;20020;-69
2023/07/31 00:19:37;;;;;;;3.50;1.77;;;18.40;99.90;;;;;;5092411;28;20032;-69
2023/07/31 00:22:03;;;;;;;4.18;1.23;;;18.40;99.90;;;;;;5092584;28;20033;-70
2023/07/31 00:24:29;;;;;;;3.42;1.40;;;18.30;99.90;;;;;;5092404;28;20412;-69
2023/07/31 00:26:54;;;;;;;4.57;1.83;;;18.40;99.90;;;;;;5092907;28;20020;-70
2023/07/31 00:29:20;;;;;;;5.10;1.50;;;18.40;99.90;;;;;;5091350;28;20116;-70
2023/07/31 00:31:45;;;;;;;4.15;1.83;;;18.40;99.90;;;;;;5091142;28;20036;-70
2023/07/31 00:34:11;;;;;;;5.80;1.90;;;18.40;99.90;;;;;;5091971;28;20430;-68
2023/07/31 00:36:36;;;;;;;4.05;1.45;;;18.50;99.90;;;;;;5091066;28;20032;-69
2023/07/31 00:39:02;;;;;;;2.47;1.42;;;18.50;99.90;;;;;;5091131;28;20060;-69
2023/07/31 00:41:28;;;;;;;2.63;1.50;;;18.50;99.90;;;;;;5091385;28;20039;-70
2023/07/31 00:43:53;;;;;;;3.20;1.40;;;18.50;99.90;;;;;;5092001;28;20035;-70
2023/07/31 00:46:20;;;;;;;4.70;1.40;;;18.50;99.90;;;;;;5092191;28;20036;-69
2023/07/31 00:48:45;;;;;;;3.20;1.27;;;18.50;99.90;;;;;;5091015;28;20033;-70
2023/07/31 00:51:11;;;;;;;4.47;1.52;;;18.50;99.90;;;;;;5091991;28;20061;-70
2023/07/31 00:53:37;;;;;;;2.92;1.40;;;18.40;99.90;;;;;;5091383;28;20086;-69
2023/07/31 00:56:03;;;;;;;2.13;1.10;;;18.50;99.90;;;;;;5092021;28;20414;-70
2023/07/31 00:58:29;;;;;;;6.78;1.48;;;18.40;99.90;;;;;;5091705;28;20039;-69
2023/07/31 01:00:55;;;;;;;5.38;1.40;;;18.40;99.90;;;;;;5091676;28;20027;-70
2023/07/31 01:03:21;;;;;;;3.85;1.70;;;18.40;99.90;;;;;;5091865;28;20047;-69
2023/07/31 01:06:11;;;;;;;2.15;1.20;;;18.40;99.90;;;;;;5092189;28;20081;-70
2023/07/31 01:09:02;;;;;;;2.85;1.30;;;18.40;99.90;;;;;;5091746;28;20039;-70
2023/07/31 01:11:30;;;;;;;5.90;1.35;;;18.30;99.90;;;;;;5090617;28;20056;-68
2023/07/31 01:13:57;;;;;;;1.73;1.08;;;18.20;99.90;;;;;;5091675;28;20036;-69
2023/07/31 01:16:22;;;;;;;6.32;1.52;;;18.20;99.90;;;;;;5091332;28;20131;-70
2023/07/31 01:18:48;;;;;;;3.97;1.30;;;18.20;99.90;;;;;;5091298;28;20132;-70
2023/07/31 01:21:35;;;;;;;4.60;1.50;;;18.10;99.90;;;;;;5091933;28;20028;-69
2023/07/31 01:24:35;;;;;;;2.95;1.10;;;18.10;99.90;;;;;;5091427;28;20354;-70
2023/07/31 01:27:14;;;;;;;6.78;1.77;;;18.10;99.90;;;;;;5086764;28;20032;-70
2023/07/31 01:30:14;;;;;;;1.95;0.85;;;18.00;99.90;;;;;;5091611;28;20533;-68
2023/07/31 01:32:42;;;;;;;2.67;1.45;;;18.00;99.90;;;;;;5090955;28;20266;-69
2023/07/31 01:35:08;;;;;;;2.08;1.05;;;18.00;99.90;;;;;;5089078;28;20062;-68
2023/07/31 01:37:34;;;;;;;3.47;1.55;;;18.00;99.90;;;;;;5070681;28;20028;-69
2023/07/31 01:40:00;;;;;;;5.38;1.45;;;18.00;99.90;;;;;;5070654;28;20032;-69
2023/07/31 01:42:25;;;;;;;2.80;1.10;;;18.00;99.90;;;;;;5070562;28;20040;-70
2023/07/31 01:44:51;;;;;;;3.42;1.20;;;18.00;99.90;;;;;;5070537;28;20068;-70
2023/07/31 01:47:17;;;;;;;2.28;1.20;;;18.00;99.90;;;;;;5070622;28;20319;-71
2023/07/31 01:49:42;;;;;;;1.02;0.88;;;18.00;99.90;;;;;;5070571;28;20029;-69
2023/07/31 01:52:08;;;;;;;4.35;1.25;;;17.90;99.90;;;;;;5070468;28;20032;-69
2023/07/31 01:54:34;;;;;;;6.50;1.20;;;18.00;99.90;;;;;;5070594;28;20039;-69
2023/07/31 01:56:59;;;;;;;2.10;1.17;;;18.00;99.90;;;;;;5070902;28;20074;-69
2023/07/31 01:59:25;;;;;;;3.80;1.13;;;17.90;99.90;;;;;;5070554;28;20042;-70
2023/07/31 02:01:50;;;;;;;1.33;0.80;;;17.90;99.90;;;;;;5070344;28;20425;-70
2023/07/31 02:04:16;;;;;;;1.10;0.90;;;17.90;99.90;;;;;;5070434;28;20493;-69
2023/07/31 02:06:43;;;;;;;2.35;1.00;;;18.00;99.90;;;;;;5070458;28;20029;-69
2023/07/31 02:09:09;;;;;;;3.55;1.33;;;17.90;99.90;;;;;;5070346;28;20261;-68
2023/07/31 02:11:34;;;;;;;2.45;1.27;;;17.80;99.90;;;;;;5071149;28;20116;-69
2023/07/31 02:14:00;;;;;;;1.40;0.82;;;17.90;99.90;;;;;;5070506;28;20029;-69
2023/07/31 02:16:25;;;;;;;2.63;1.15;;;17.80;99.90;;;;;;5070396;28;20028;-69
2023/07/31 02:18:51;;;;;;;8.23;1.05;;;17.90;99.90;;;;;;5069292;28;20137;-69
2023/07/31 02:21:16;;;;;;;1.90;0.75;;;17.80;99.90;;;;;;5070309;28;20059;-69
2023/07/31 02:23:42;;;;;;;5.05;1.40;;;17.90;99.90;;;;;;5070493;28;20048;-68
2023/07/31 02:26:08;;;;;;;1.80;0.70;;;17.90;99.90;;;;;;5069252;28;20429;-69
2023/07/31 02:28:33;;;;;;;3.25;0.90;;;17.90;99.90;;;;;;5069160;28;20043;-70
2023/07/31 02:30:59;;;;;;;6.03;0.80;;;17.90;99.90;;;;;;5070018;28;20127;-68
2023/07/31 02:33:25;;;;;;;1.42;0.60;;;17.90;99.90;;;;;;5070048;28;20072;-70
2023/07/31 02:35:50;;;;;;;0.95;0.60;;;17.90;99.90;;;;;;5070538;28;20025;-69
2023/07/31 02:38:16;;;;;;;1.70;0.73;;;17.90;99.90;;;;;;5068944;28;20032;-69
2023/07/31 02:40:42;;;;;;;1.38;0.63;;;17.90;99.90;;;;;;5069975;28;20021;-71
2023/07/31 02:43:08;;;;;;;1.95;0.93;;;17.80;99.90;;;;;;5068843;28;20044;-68
2023/07/31 02:45:34;;;;;;;4.75;1.20;;;17.80;99.90;;;;;;5070225;28;20036;-69
2023/07/31 02:47:59;;;;;;;0.70;0.50;;;17.80;99.90;;;;;;5070427;28;20024;-69
2023/07/31 02:50:27;;;;;;;1.77;0.70;;;17.90;99.90;;;;;;5070071;28;20044;-69
2023/07/31 02:52:53;;;;;;;1.73;0.88;;;17.80;99.90;;;;;;5069943;28;20502;-69
2023/07/31 02:55:18;;;;;;;0.95;0.60;;;17.80;99.90;;;;;;5069884;28;20166;-68
2023/07/31 02:57:44;;;;;;;2.03;0.93;;;17.80;99.90;;;;;;5073925;28;20473;-69
2023/07/31 03:00:10;;;;;;;1.30;0.93;;;17.80;99.90;;;;;;5073798;28;20434;-70
2023/07/31 03:02:35;;;;;;;1.65;0.88;;;17.80;99.90;;;;;;5074112;28;20056;-69
2023/07/31 03:05:01;;;;;;;0.77;0.55;;;17.90;99.90;;;;;;5073789;28;20142;-68
2023/07/31 03:07:27;;;;;;;1.23;0.52;;;17.80;99.90;;;;;;5073717;28;20021;-69
2023/07/31 03:09:52;;;;;;;1.50;0.93;;;17.90;99.90;;;;;;5072518;28;20067;-69
2023/07/31 03:12:19;;;;;;;2.58;0.85;;;17.90;99.90;;;;;;5073355;28;20032;-69
2023/07/31 03:14:45;;;;;;;0.88;0.70;;;17.90;99.90;;;;;;5075360;28;20447;-69
2023/07/31 03:17:11;;;;;;;3.30;0.70;;;17.90;99.90;;;;;;5073287;28;20152;-69
2023/07/31 03:19:37;;;;;;;2.47;0.90;;;17.90;99.90;;;;;;5073540;28;20040;-69
2023/07/31 03:22:03;;;;;;;3.10;0.63;;;17.90;99.90;;;;;;5073435;28;20358;-68
2023/07/31 03:24:29;;;;;;;1.15;0.88;;;17.90;99.90;;;;;;5073483;28;20036;-67
2023/07/31 03:26:55;;;;;;;2.83;1.00;;;17.90;99.90;;;;;;5073680;28;20458;-69
2023/07/31 03:29:20;;;;;;;0.88;0.70;;;17.90;99.90;;;;;;5073064;28;20035;-69
2023/07/31 03:31:46;;;;;;;2.25;0.93;;;18.00;99.90;;;;;;5072128;28;20482;-68
2023/07/31 03:34:11;;;;;;;3.00;0.80;;;18.00;99.90;;;;;;5072822;28;20048;-69
2023/07/31 03:36:37;;;;;;;1.65;0.60;;;17.90;99.90;;;;;;5073191;28;20098;-69
2023/07/31 03:39:03;;;;;;;2.33;0.88;;;17.90;99.90;;;;;;5071965;28;20421;-69
2023/07/31 03:41:29;;;;;;;2.13;0.95;;;17.90;99.90;;;;;;5073412;28;20111;-70
2023/07/31 03:43:57;;;;;;;3.55;0.73;;;17.90;99.90;;;;;;5072794;28;20029;-69
2023/07/31 03:46:24;;;;;;;2.17;0.80;;;17.80;99.90;;;;;;5072784;28;20063;-70
2023/07/31 03:48:50;;;;;;;1.33;0.75;;;17.80;99.90;;;;;;5071711;28;20504;-68
2023/07/31 03:51:16;;;;;;;2.38;0.63;;;17.80;99.90;;;;;;5072843;28;20029;-69
2023/07/31 03:53:43;;;;;;;0.80;0.63;;;17.80;99.90;;;;;;5073209;28;20300;-69
2023/07/31 03:56:08;;;;;;;1.50;0.80;;;17.80;99.90;;;;;;5072676;28;20131;-69
2023/07/31 03:58:35;;;;;;;2.38;1.00;;;17.80;99.90;;;;;;5072725;28;20111;-69
2023/07/31 04:01:00;;;;;;;0.80;0.63;;;17.80;99.90;;;;;;5072538;28;20029;-70
2023/07/31 04:03:26;;;;;;;0.85;0.73;;;17.80;99.90;;;;;;5072441;28;20519;-70
2023/07/31 04:05:54;;;;;;;2.95;1.00;;;17.80;99.90;;;;;;5072823;28;20021;-70
2023/07/31 04:08:19;;;;;;;1.92;0.60;;;17.80;99.90;;;;;;5071911;28;20083;-69
2023/07/31 04:10:45;;;;;;;1.35;0.98;;;17.80;99.90;;;;;;5072696;28;20435;-69
2023/07/31 04:13:11;;;;;;;2.30;1.10;;;17.70;99.90;;;;;;5072542;28;20429;-68
2023/07/31 04:15:36;;;;;;;9.80;2.22;;;17.70;99.90;;;;;;5072543;28;20040;-69
2023/07/31 04:18:02;;;;;;;2.28;1.13;;;17.80;99.90;;;;;;5071238;28;20024;-69
2023/07/31 04:20:28;;;;;;;1.30;0.60;;;17.80;99.90;;;;;;5072709;28;20462;-69
2023/07/31 04:22:53;;;;;;;1.95;0.57;;;17.70;99.90;;;;;;5071012;28;20138;-68
2023/07/31 04:25:19;;;;;;;0.98;0.90;;;17.70;99.90;;;;;;5071211;28;20029;-68
2023/07/31 04:27:44;;;;;;;3.13;1.05;;;17.70;99.90;;;;;;5072158;28;20114;-68
2023/07/31 04:30:10;;;;;;;1.08;0.75;;;17.70;99.90;;;;;;5070934;28;20107;-70
2023/07/31 04:32:36;;;;;;;2.00;1.13;;;17.70;99.90;;;;;;5072175;28;20045;-70
2023/07/31 04:35:02;;;;;;;1.90;1.00;;;17.70;99.90;;;;;;5072025;28;20040;-69
2023/07/31 04:37:28;;;;;;;1.08;0.75;;;17.60;99.90;;;;;;5071837;28;20058;-68
2023/07/31 04:39:53;;;;;;;1.23;0.85;;;17.60;99.90;;;;;;5071980;28;20032;-70
2023/07/31 04:42:19;;;;;;;3.08;1.05;;;17.50;99.90;;;;;;5070563;28;20105;-70
2023/07/31 04:44:45;;;;;;;1.85;0.90;;;17.50;99.90;;;;;;5072157;28;20033;-69
2023/07/31 04:47:10;;;;;;;1.35;0.82;;;17.50;99.90;;;;;;5071772;28;20044;-67
2023/07/31 04:49:36;;;;;;;2.17;0.75;;;17.50;99.90;;;;;;5072015;28;20043;-69
2023/07/31 04:52:02;;;;;;;1.90;0.80;;;17.50;99.90;;;;;;5071573;28;20037;-69
2023/07/31 04:54:27;;;;;;;2.72;1.55;;;17.40;99.90;;;;;;5071666;28;20093;-70
2023/07/31 04:56:53;;;;;;;1.33;0.80;;;17.40;99.90;;;;;;5070917;28;20359;-68
2023/07/31 04:59:19;;;;;;;1.30;0.70;;;17.40;99.90;;;;;;5071534;28;20102;-69
2023/07/31 05:01:47;;;;;;;0.40;0.40;;;17.40;99.90;;;;;;5071425;28;20355;-69
2023/07/31 05:04:14;;;;;;;2.58;0.63;;;17.40;99.90;;;;;;5071298;28;20033;-68
2023/07/31 05:06:40;;;;;;;0.63;0.50;;;17.30;99.90;;;;;;5071553;28;20028;-69
2023/07/31 05:09:06;;;;;;;1.02;0.40;;;17.30;99.90;;;;;;5071484;28;20024;-70
2023/07/31 05:11:32;;;;;;;1.63;0.63;;;17.30;99.90;;;;;;5071547;28;20039;-69
2023/07/31 05:13:57;;;;;;;0.88;0.60;;;17.30;99.90;;;;;;5071049;28;20113;-69
2023/07/31 05:16:23;;;;;;;2.90;0.60;;;17.20;99.90;;;;;;5071103;28;20032;-68
2023/07/31 05:18:48;;;;;;;1.42;0.60;;;17.30;99.90;;;;;;5069083;28;20098;-67
2023/07/31 05:21:14;;;;;;;1.40;0.60;;;17.40;99.90;;;;;;5071288;28;20103;-69
2023/07/31 05:23:40;;;;;;;0.60;0.30;;;17.40;99.90;;;;;;5071594;28;20031;-68
2023/07/31 05:26:06;;;;;;;0.63;0.50;;;17.40;99.90;;;;;;5071305;28;20441;-69
2023/07/31 05:28:34;;;;;;;0.57;0.55;;;17.40;99.90;;;;;;5071064;28;20039;-67
2023/07/31 05:31:01;;;;;;;0.70;0.70;;;17.40;99.90;;;;;;5070905;28;20037;-68
2023/07/31 05:33:27;;;;;;;2.45;0.60;;;17.40;99.90;;;;;;5071026;28;20214;-69
2023/07/31 05:35:53;;;;;;;1.00;0.45;;;17.40;99.90;;;;;;5071192;28;20123;-68
2023/07/31 05:38:18;;;;;;;1.08;0.57;;;17.40;99.90;;;;;;5070770;28;20029;-68
2023/07/31 05:40:44;;;;;;;3.42;0.93;;;17.40;99.90;;;;;;5070670;28;20029;-69
2023/07/31 05:43:10;;;;;;;1.30;0.77;;;17.30;99.90;;;;;;5069272;28;20090;-69
2023/07/31 05:45:36;;;;;;;3.30;1.35;;;17.30;99.90;;;;;;5069474;28;20046;-69
2023/07/31 05:48:02;;;;;;;2.72;1.50;;;17.40;99.90;;;;;;5070696;28;20054;-68
2023/07/31 05:50:28;;;;;;;4.70;1.17;;;17.30;99.90;;;;;;5071017;28;20017;-67
2023/07/31 05:52:53;;;;;;;2.72;1.80;;;17.40;99.90;;;;;;5070537;28;20028;-69
2023/07/31 05:55:19;;;;;;;5.88;2.58;;;17.50;99.90;;;;;;5069483;28;20411;-69
2023/07/31 05:57:45;;;;;;;3.60;1.98;;;17.50;99.90;;;;;;5070744;28;20048;-68
2023/07/31 06:00:12;;;;;;;6.03;3.25;;;17.40;99.90;;;;;;5070248;28;20043;-68
2023/07/31 06:02:38;;;;;;;4.03;2.87;;;17.50;99.90;;;;;;5077271;28;20039;-67
2023/07/31 06:05:08;;;;;;;14.18;5.00;;;17.50;99.90;;;;;;5070096;28;20406;-67
2023/07/31 06:07:33;;;;;;;10.75;5.20;;;17.50;99.90;;;;;;5070135;28;20024;-68
2023/07/31 06:10:04;;;;;;;5.68;4.22;;;17.70;99.90;;;;;;5070322;28;20044;-69
2023/07/31 06:12:30;;;;;;;11.98;4.85;;;17.50;99.90;;;;;;5069993;28;20343;-68
2023/07/31 06:14:56;;;;;;;11.02;6.30;;;17.50;99.90;;;;;;5070945;28;20103;-68
2023/07/31 06:17:22;;;;;;;10.60;5.68;;;17.60;99.90;;;;;;5070065;28;20115;-68
2023/07/31 06:19:49;;;;;;;12.13;6.28;;;17.60;99.90;;;;;;5068976;28;20039;-67
2023/07/31 06:22:14;;;;;;;13.07;5.35;;;17.60;99.90;;;;;;5070284;28;20464;-69
2023/07/31 06:24:40;;;;;;;10.40;5.57;;;17.70;99.90;;;;;;5070119;28;20124;-69
2023/07/31 06:27:06;;;;;;;17.67;5.80;;;17.70;99.90;;;;;;5069966;28;20490;-68
2023/07/31 06:29:32;;;;;;;11.48;6.88;;;17.70;99.90;;;;;;5070599;28;20033;-68
2023/07/31 06:31:58;;;;;;;8.25;4.72;;;17.70;99.90;;;;;;5069852;28;20104;-68
2023/07/31 06:34:24;;;;;;;8.02;5.05;;;17.80;99.90;;;;;;5070183;28;20075;-68
2023/07/31 06:36:49;;;;;;;9.18;5.20;;;17.80;99.90;;;;;;5069699;28;20462;-69
2023/07/31 06:39:15;;;;;;;8.85;5.60;;;17.70;99.90;;;;;;5069728;28;20040;-68
2023/07/31 06:41:41;;;;;;;11.93;5.60;;;17.80;99.90;;;;;;5070303;28;20307;-69
2023/07/31 06:44:07;;;;;;;9.23;4.78;;;17.80;99.90;;;;;;5069850;28;20033;-69
2023/07/31 06:46:32;;;;;;;8.48;4.70;;;17.80;99.90;;;;;;5069817;28;20028;-70
2023/07/31 06:48:58;;;;;;;11.93;5.57;;;17.70;99.90;;;;;;5069850;28;20029;-68
2023/07/31 06:51:24;;;;;;;8.88;5.28;;;17.70;99.90;;;;;;5069550;28;20090;-69
2023/07/31 06:53:49;;;;;;;12.57;5.72;;;17.80;99.90;;;;;;5070177;28;20139;-68
2023/07/31 06:56:15;;;;;;;13.65;5.68;;;17.80;99.90;;;;;;5070093;28;20414;-69
2023/07/31 06:58:41;;;;;;;11.30;5.28;;;17.80;99.90;;;;;;5069752;28;20483;-69
2023/07/31 07:01:06;;;;;;;13.50;5.85;;;17.80;99.90;;;;;;5069175;28;20111;-70
2023/07/31 07:03:32;;;;;;;12.23;5.60;;;17.80;99.90;;;;;;5069525;28;20119;-68
2023/07/31 07:05:58;;;;;;;10.98;5.78;;;17.80;99.90;;;;;;5069902;28;20035;-69
2023/07/31 07:08:24;;;;;;;8.63;5.47;;;17.80;99.90;;;;;;5069569;28;20028;-70
2023/07/31 07:10:50;;;;;;;16.35;7.50;;;17.80;99.90;;;;;;5069522;28;20028;-68
2023/07/31 07:13:16;;;;;;;12.50;6.63;;;17.80;99.90;;;;;;5069409;28;20040;-68
2023/07/31 07:15:41;;;;;;;14.93;5.80;;;17.80;99.90;;;;;;5068362;28;20047;-68
2023/07/31 07:18:07;;;;;;;9.65;5.35;;;17.80;99.90;;;;;;5068341;28;20101;-68
2023/07/31 07:20:33;;;;;;;13.60;6.55;;;17.80;99.90;;;;;;5068970;28;20509;-69
2023/07/31 07:22:58;;;;;;;12.13;6.03;;;17.80;99.90;;;;;;5069423;28;20029;-68
2023/07/31 07:25:24;;;;;;;12.00;6.60;;;17.70;99.90;;;;;;5067853;28;20021;-68
2023/07/31 07:27:50;;;;;;;11.43;6.63;;;17.80;99.90;;;;;;5069206;28;20063;-68
2023/07/31 07:30:15;;;;;;;17.38;6.45;;;17.80;99.90;;;;;;5069531;28;20138;-70
2023/07/31 07:32:41;;;;;;;14.93;7.13;;;17.80;99.90;;;;;;5069521;28;20538;-69
2023/07/31 07:35:07;;;;;;;13.32;7.57;;;17.90;99.90;;;;;;5069655;28;20501;-69
2023/07/31 07:37:33;;;;;;;14.63;7.07;;;17.90;99.90;;;;;;5069323;28;20063;-69
2023/07/31 07:39:59;;;;;;;16.90;7.68;;;18.00;99.90;;;;;;5069152;28;20120;-70
2023/07/31 07:42:24;;;;;;;17.60;8.77;;;18.00;99.90;;;;;;5070544;28;20119;-70
2023/07/31 07:44:50;;;;;;;17.65;7.22;;;18.10;99.90;;;;;;5073236;28;20024;-69
2023/07/31 07:47:16;;;;;;;13.13;7.75;;;18.10;99.90;;;;;;5072892;28;20089;-69
2023/07/31 07:49:42;;;;;;;14.52;7.30;;;18.30;99.90;;;;;;5072709;28;20474;-70
2023/07/31 07:52:07;;;;;;;15.43;7.45;;;18.40;99.90;;;;;;5072836;28;20067;-71
2023/07/31 07:54:33;;;;;;;14.93;7.70;;;18.40;99.90;;;;;;5073148;28;20370;-69
2023/07/31 07:56:59;;;;;;;15.10;6.90;;;18.40;99.90;;;;;;5072945;28;20032;-70
2023/07/31 07:59:25;;;;;;;15.82;6.80;;;18.30;99.90;;;;;;5071827;28;20452;-69
2023/07/31 08:01:51;;;;;;;11.68;6.72;;;18.40;99.90;;;;;;5071317;28;20086;-69
2023/07/31 08:04:16;;;;;;;18.67;8.75;;;18.40;99.90;;;;;;5072319;28;20048;-70
2023/07/31 08:06:42;;;;;;;16.17;7.40;;;18.60;99.90;;;;;;5071349;28;20029;-70
2023/07/31 08:09:08;;;;;;;20.85;7.20;;;18.60;99.90;;;;;;5072810;28;20031;-69
2023/07/31 08:11:34;;;;;;;14.68;6.28;;;18.60;99.90;;;;;;5072804;28;20028;-69
2023/07/31 08:14:00;;;;;;;12.25;6.35;;;18.70;99.90;;;;;;5072437;28;20043;-68
2023/07/31 08:16:26;;;;;;;15.57;5.85;;;18.70;99.90;;;;;;5072238;28;20033;-68
2023/07/31 08:18:52;;;;;;;9.63;4.72;;;18.60;99.90;;;;;;5071490;28;20098;-68
2023/07/31 08:21:17;;;;;;;11.55;5.80;;;18.50;99.90;;;;;;5072215;28;20063;-69
2023/07/31 08:23:43;;;;;;;13.30;5.28;;;18.50;99.90;;;;;;5072330;28;20025;-70
2023/07/31 08:26:15;;;;;;;10.68;5.15;;;18.60;99.90;;;;;;5072075;28;20036;-70
2023/07/31 08:28:41;;;;;;;11.25;5.40;;;18.50;99.90;;;;;;5070573;28;20111;-71
2023/07/31 08:31:06;;;;;;;11.85;4.75;;;18.60;99.90;;;;;;5072160;28;20103;-70
2023/07/31 08:33:32;;;;;;;12.50;5.22;;;18.60;99.90;;;;;;5070398;28;20182;-71
2023/07/31 08:35:59;;;;;;;16.05;4.95;;;18.70;99.90;;;;;;5072499;28;20264;-69
2023/07/31 08:38:26;;;;;;;11.70;5.25;;;18.60;99.90;;;;;;5071807;28;20082;-70
2023/07/31 08:40:52;;;;;;;14.43;4.93;;;18.70;99.90;;;;;;5071844;28;20124;-70
2023/07/31 08:43:19;;;;;;;10.77;4.78;;;18.70;99.90;;;;;;5071621;28;20060;-70
2023/07/31 08:45:46;;;;;;;10.43;5.28;;;18.70;99.90;;;;;;5053792;28;20228;-69
2023/07/31 08:48:13;;;;;;;12.45;5.45;;;18.70;99.90;;;;;;5071846;28;20025;-69
2023/07/31 08:50:39;;;;;;;11.30;4.93;;;18.80;99.90;;;;;;5072169;28;20046;-70
2023/07/31 08:53:04;;;;;;;14.27;5.15;;;18.80;99.90;;;;;;5071595;28;20025;-70
2023/07/31 08:55:32;;;;;;;16.27;5.18;;;18.70;99.90;;;;;;5071390;28;20039;-70
2023/07/31 08:57:58;;;;;;;11.02;4.90;;;18.70;99.90;;;;;;5071689;28;20060;-71
2023/07/31 09:00:25;;;;;;;9.50;5.03;;;18.80;99.90;;;;;;5071530;28;20028;-70
2023/07/31 09:03:04;;;;;;;10.95;5.00;;;18.90;99.90;;;;;;5071533;28;20498;-70
2023/07/31 09:05:31;;;;;;;9.10;4.68;;;19.00;99.90;;;;;;5071180;28;20442;-69
2023/07/31 09:07:58;;;;;;;9.55;4.32;;;19.00;99.90;;;;;;5070002;28;20039;-70
2023/07/31 09:10:24;;;;;;;11.27;4.05;;;19.10;99.90;;;;;;5071244;28;20036;-68
2023/07/31 09:12:52;;;;;;;15.00;5.35;;;19.00;99.90;;;;;;5071108;28;20071;-70
2023/07/31 09:15:19;;;;;;;11.95;4.45;;;19.00;99.90;;;;;;5071295;28;20016;-70
2023/07/31 09:17:44;;;;;;;11.10;4.20;;;19.10;99.90;;;;;;5071466;28;20450;-69
2023/07/31 09:20:18;;;;;;;10.18;3.92;;;19.10;99.90;;;;;;5070034;28;20024;-70
2023/07/31 09:22:45;;;;;;;8.73;4.05;;;19.10;99.90;;;;;;5070902;28;20028;-69
2023/07/31 09:25:18;;;;;;;10.27;4.15;;;19.10;99.90;;;;;;5070841;28;20048;-69
2023/07/31 09:27:57;;;;;;;6.75;3.70;;;19.20;99.90;;;;;;5070732;28;20063;-69
2023/07/31 09:30:22;;;;;;;9.63;3.83;;;19.20;99.90;;;;;;5070690;28;20036;-70
2023/07/31 09:32:50;;;;;;;6.40;3.88;;;19.20;99.90;;;;;;5071148;28;20200;-69
2023/07/31 09:35:28;;;;;;;7.28;3.92;;;19.20;99.90;;;;;;5069607;28;20098;-68
2023/07/31 09:38:14;;;;;;;8.00;3.97;;;19.20;99.90;;;;;;5070740;28;20029;-68
2023/07/31 09:40:49;;;;;;;8.15;3.42;;;19.20;99.90;;;;;;5070836;28;20028;-69
2023/07/31 09:43:20;;;;;;;7.72;3.35;;;19.20;99.90;;;;;;5069351;28;20040;-69
2023/07/31 09:45:46;;;;;;;6.70;3.05;;;19.20;99.90;;;;;;5070677;28;20124;-70
2023/07/31 09:48:18;;;;;;;8.55;2.90;;;19.10;99.90;;;;;;5069774;28;20025;-69
2023/07/31 09:50:48;;;;;;;8.43;2.85;;;19.00;99.90;;;;;;5069973;28;20023;-69
2023/07/31 09:53:15;;;;;;;5.25;2.75;;;19.00;99.90;;;;;;5069342;28;20025;-68
2023/07/31 09:55:42;;;;;;;6.68;3.55;;;19.10;99.90;;;;;;5069388;28;20208;-68
2023/07/31 09:58:10;;;;;;;4.35;2.47;;;19.10;99.90;;;;;;5069184;28;20496;-69
2023/07/31 10:00:36;;;;;;;4.68;2.50;;;19.10;99.90;;;;;;5070532;28;20049;-68
2023/07/31 10:03:05;;;;;;;5.97;2.45;;;19.10;99.90;;;;;;5069106;28;20484;-69
2023/07/31 10:05:44;;;;;;;9.40;2.67;;;19.20;99.90;;;;;;5070337;28;20020;-69
2023/07/31 10:08:13;;;;;;;4.78;2.08;;;19.10;99.90;;;;;;5070333;28;20032;-68
2023/07/31 10:10:45;;;;;;;6.57;2.22;;;19.20;99.90;;;;;;5070232;28;20424;-69
2023/07/31 10:13:12;;;;;;;4.07;1.88;;;19.10;99.90;;;;;;5070117;28;20358;-69
2023/07/31 10:15:38;;;;;;;6.65;2.20;;;19.10;99.90;;;;;;5070153;28;20035;-69
2023/07/31 10:18:06;;;;;;;2.25;1.70;;;19.00;99.90;;;;;;5069133;28;20024;-69
2023/07/31 10:20:32;;;;;;;3.95;1.70;;;19.10;99.90;;;;;;5070603;28;20024;-68
2023/07/31 10:22:59;;;;;;;5.70;1.92;;;19.10;99.90;;;;;;5070121;28;20622;-68
2023/07/31 10:25:26;;;;;;;5.13;1.70;;;19.10;99.90;;;;;;5070112;28;20067;-67
2023/07/31 10:27:53;;;;;;;1.70;1.52;;;19.20;99.90;;;;;;5068985;28;20121;-68
2023/07/31 10:30:22;;;;;;;4.00;2.00;;;19.10;99.90;;;;;;5068977;28;20020;-69
2023/07/31 10:32:50;;;;;;;3.58;2.10;;;19.20;99.90;;;;;;5069316;28;20048;-69
2023/07/31 10:35:17;;;;;;;3.38;2.10;;;19.30;99.90;;;;;;5069751;28;20036;-69
2023/07/31 10:37:43;;;;;;;4.20;2.20;;;19.30;99.90;;;;;;5070144;28;20036;-69
2023/07/31 10:40:13;;;;;;;3.70;2.35;;;19.30;99.90;;;;;;5069846;28;20101;-69
2023/07/31 10:42:48;;;;;;;2.83;1.98;;;19.30;99.90;;;;;;5068313;28;20039;-69
2023/07/31 10:45:14;;;;;;;2.72;1.90;;;19.30;99.90;;;;;;5069727;28;20027;-68
2023/07/31 10:47:46;;;;;;;4.93;1.85;;;19.40;99.90;;;;;;5070769;28;20036;-69
2023/07/31 10:50:23;;;;;;;2.92;1.70;;;19.40;99.90;;;;;;5070396;28;20134;-68
2023/07/31 10:52:51;;;;;;;2.80;1.90;;;19.40;99.90;;;;;;5068927;28;20485;-69
2023/07/31 10:55:33;;;;;;;;;;;19.40;99.90;;;;;;5070654;28;20037;-68
2023/07/31 10:58:25;;;;;;;3.95;2.03;;;19.40;99.90;;;;;;5069846;28;19970;-67
2023/07/31 11:00:56;;;;;;;3.10;1.98;;;19.40;99.90;;;;;;5067772;28;20033;-68
2023/07/31 11:03:26;;;;;;;3.72;1.75;;;19.40;99.90;;;;;;5069877;28;20043;-69
2023/07/31 11:05:59;;;;;;;3.20;1.88;;;19.40;99.90;;;;;;5070203;28;20371;-69
2023/07/31 11:08:26;;;;;;;2.60;1.67;;;19.50;99.90;;;;;;5070087;28;20098;-69
2023/07/31 11:11:12;;;;;;;2.80;1.60;;;19.40;99.90;;;;;;5069691;28;20073;-69
2023/07/31 11:13:44;;;;;;;2.25;1.63;;;19.50;99.90;;;;;;5069785;28;20032;-69
2023/07/31 11:16:11;;;;;;;4.00;1.67;;;19.50;99.90;;;;;;5069675;28;20071;-69
2023/07/31 11:18:40;;;;;;;3.42;1.90;;;19.60;99.90;;;;;;5073067;28;20331;-70
2023/07/31 11:21:06;;;;;;;3.78;1.65;;;19.60;99.90;;;;;;5073300;28;20029;-70
2023/07/31 11:23:32;;;;;;;3.72;2.25;;;19.60;99.90;;;;;;5073627;28;20094;-68
2023/07/31 11:26:01;;;;;;;2.60;1.73;;;19.60;99.90;;;;;;5072128;28;20450;-68
2023/07/31 11:28:35;;;;;;;5.55;1.83;;;19.60;99.90;;;;;;5073311;28;20104;-68
2023/07/31 11:31:02;;;;;;;5.97;1.83;;;19.70;99.90;;;;;;5073218;28;20032;-70
2023/07/31 11:33:28;;;;;;;5.28;1.83;;;19.70;99.90;;;;;;5072829;28;20048;-69
2023/07/31 11:35:53;;;;;;;2.25;1.30;;;19.80;99.90;;;;;;5073567;28;20381;-70
2023/07/31 11:38:24;;;;;;;4.05;2.05;;;19.80;99.90;;;;;;5072852;28;20025;-69
2023/07/31 11:40:50;;;;;;;3.33;1.77;;;19.80;99.90;;;;;;5071886;28;20044;-68
2023/07/31 11:43:18;;;;;;;3.63;2.38;;;19.80;99.90;;;;;;5072895;28;20044;-69
2023/07/31 11:45:53;;;;;;;3.97;1.70;;;19.80;99.90;;;;;;5071660;28;20422;-67
2023/07/31 11:48:33;;;;;;;3.00;1.80;;;19.80;99.90;;;;;;5071738;28;20021;-68
2023/07/31 11:51:01;;;;;;;6.65;2.47;;;19.80;99.90;;;;;;5073082;28;20020;-69
2023/07/31 11:53:42;;;;;;;4.97;2.03;;;19.90;99.90;;;;;;5073173;28;20535;-69
2023/07/31 11:56:11;;;;;;;5.15;2.00;;;19.90;99.90;;;;;;5073053;28;20024;-68
2023/07/31 11:58:38;;;;;;;5.85;1.98;;;19.80;99.90;;;;;;5072762;28;20038;-70
2023/07/31 12:01:04;;;;;;;4.15;1.77;;;19.90;99.90;;;;;;5072726;28;20190;-68
2023/07/31 12:03:31;;;;;;;4.05;1.90;;;20.00;99.90;;;;;;5072831;28;20048;-68
2023/07/31 12:05:58;;;;;;;5.82;1.80;;;20.10;99.90;;;;;;5073326;28;20036;-69
2023/07/31 12:08:25;;;;;;;3.72;1.90;;;19.90;99.90;;;;;;5071301;28;20357;-68
2023/07/31 12:10:52;;;;;;;3.08;1.67;;;19.90;99.90;;;;;;5071404;28;20036;-69
2023/07/31 12:13:26;;;;;;;17.15;10.77;;;19.90;99.90;;;;;;5072513;28;20044;-68
2023/07/31 12:15:57;;;;;;;5.22;3.03;;;20.00;99.90;;;;;;5071151;28;20040;-69
2023/07/31 12:18:24;;;;;;;3.65;1.85;;;20.00;99.90;;;;;;5072251;28;20035;-68
2023/07/31 12:20:56;;;;;;;3.08;1.73;;;20.00;99.90;;;;;;5071688;28;20025;-68
2023/07/31 12:23:30;;;;;;;4.03;2.20;;;20.00;99.90;;;;;;5072183;28;20047;-69
2023/07/31 12:26:13;;;;;;;2.97;1.77;;;20.00;99.90;;;;;;5071420;28;20036;-69
2023/07/31 12:28:44;;;;;;;2.30;1.50;;;20.00;99.90;;;;;;5071643;28;20067;-69
2023/07/31 12:31:11;;;;;;;4.20;1.92;;;20.00;99.90;;;;;;5071943;28;20041;-69
2023/07/31 12:33:39;;;;;;;2.15;1.70;;;19.90;99.90;;;;;;5072052;28;20127;-68
2023/07/31 12:36:08;;;;;;;1.40;1.20;;;20.00;99.90;;;;;;5072227;28;20025;-68
2023/07/31 12:38:34;;;;;;;2.65;1.70;;;20.00;99.90;;;;;;5072847;28;20013;-68
2023/07/31 12:41:00;;;;;;;2.08;1.10;;;20.00;99.90;;;;;;5071900;28;20035;-69
2023/07/31 12:43:26;;;;;;;3.33;1.58;;;20.10;99.90;;;;;;5071959;28;20086;-68
2023/07/31 12:45:54;;;;;;;5.07;1.85;;;20.10;99.90;;;;;;5071860;28;20134;-68